createdAt,value
2018-02-04T00:00:12.015Z,49.40
2018-02-04T00:01:11.930Z,49.59
2018-02-04T00:03:04.713Z,49.40
2018-02-04T00:04:04.628Z,49.40
2018-02-04T00:05:57.392Z,49.59
2018-02-04T00:06:57.324Z,49.30
2018-02-04T00:08:50.108Z,49.30
2018-02-04T00:09:50.020Z,49.78
2018-02-04T00:11:42.785Z,49.59
2018-02-04T00:12:42.720Z,49.40
2018-02-04T00:14:35.501Z,49.49
2018-02-04T00:15:35.416Z,49.30
2018-02-04T00:17:28.176Z,49.40
2018-02-04T00:18:28.110Z,49.40
2018-02-04T00:20:20.894Z,49.40
2018-02-04T00:21:20.810Z,49.49
2018-02-04T00:23:13.570Z,49.40
2018-02-04T00:24:13.506Z,49.49
2018-02-04T00:26:06.296Z,49.40
2018-02-04T00:27:06.208Z,49.30
2018-02-04T00:28:58.970Z,49.49
2018-02-04T00:29:58.907Z,49.49
2018-02-04T00:31:51.688Z,49.40
2018-02-04T00:32:51.602Z,49.30
2018-02-04T00:34:44.388Z,49.49
2018-02-04T00:35:44.300Z,49.30
2018-02-04T00:37:37.085Z,49.02
2018-02-04T00:38:36.998Z,48.93
2018-02-04T00:40:29.762Z,48.73
2018-02-04T00:41:29.700Z,48.83
2018-02-04T00:43:22.482Z,48.83
2018-02-04T00:44:22.396Z,48.93
2018-02-04T00:46:15.158Z,48.93
2018-02-04T00:47:15.101Z,49.21
2018-02-04T00:49:07.877Z,48.93
2018-02-04T00:50:07.792Z,49.02
2018-02-04T00:52:00.576Z,49.02
2018-02-04T00:53:00.520Z,48.83
2018-02-04T00:54:53.271Z,48.93
2018-02-04T00:55:53.186Z,49.11
2018-02-04T00:57:45.949Z,49.21
2018-02-04T00:58:45.886Z,48.93
2018-02-04T01:00:38.668Z,49.30
2018-02-04T01:01:38.580Z,49.02
2018-02-04T01:03:31.342Z,49.49
2018-02-04T01:04:31.278Z,49.11
2018-02-04T01:06:24.059Z,48.73
2018-02-04T01:07:23.977Z,48.73
2018-02-04T01:09:16.759Z,49.30
2018-02-04T01:10:16.673Z,49.30
2018-02-04T01:12:09.455Z,48.83
2018-02-04T01:13:09.373Z,49.49
2018-02-04T01:15:02.128Z,49.59
2018-02-04T01:16:02.064Z,49.30
2018-02-04T01:17:54.847Z,49.21
2018-02-04T01:18:54.762Z,49.30
2018-02-04T01:20:47.537Z,49.02
2018-02-04T01:21:47.475Z,49.21
2018-02-04T01:23:40.254Z,48.93
2018-02-04T01:24:40.168Z,49.49
2018-02-04T01:26:32.950Z,49.21
2018-02-04T01:27:32.866Z,48.83
2018-02-04T01:29:25.649Z,48.73
2018-02-04T01:30:25.558Z,49.40
2018-02-04T01:32:18.320Z,48.83
2018-02-04T01:33:18.255Z,49.49
2018-02-04T01:35:11.037Z,49.78
2018-02-04T01:36:10.954Z,49.40
2018-02-04T01:38:03.713Z,49.40
2018-02-04T01:39:03.647Z,49.40
2018-02-04T01:40:56.429Z,49.40
2018-02-04T01:41:56.344Z,49.49
2018-02-04T01:43:49.127Z,49.49
2018-02-04T01:44:49.041Z,49.49
2018-02-04T01:46:41.820Z,49.21
2018-02-04T01:47:41.736Z,48.73
2018-02-04T01:49:34.518Z,49.21
2018-02-04T01:50:34.433Z,48.73
2018-02-04T01:52:27.217Z,48.83
2018-02-04T01:53:27.133Z,49.30
2018-02-04T01:55:19.889Z,49.11
2018-02-04T01:56:19.827Z,49.21
2018-02-04T01:58:12.611Z,48.64
2018-02-04T01:59:12.524Z,49.11
2018-02-04T02:01:05.305Z,49.40
2018-02-04T02:02:05.219Z,49.40
2018-02-04T02:03:58.000Z,49.21
2018-02-04T02:04:57.914Z,49.40
2018-02-04T02:06:50.695Z,49.59
2018-02-04T02:07:50.609Z,49.59
2018-02-04T02:09:43.392Z,49.49
2018-02-04T02:10:43.307Z,49.40
2018-02-04T02:12:36.067Z,49.49
2018-02-04T02:13:36.004Z,49.30
2018-02-04T02:15:28.844Z,49.30
2018-02-04T02:16:28.712Z,48.93
2018-02-04T02:18:21.495Z,49.30
2018-02-04T02:19:21.408Z,48.93
2018-02-04T02:21:14.193Z,49.11
2018-02-04T02:22:14.107Z,49.11
2018-02-04T02:24:06.889Z,49.11
2018-02-04T02:25:06.804Z,49.11
2018-02-04T02:26:59.589Z,49.11
2018-02-04T02:27:59.501Z,48.83
2018-02-04T02:29:52.261Z,48.73
2018-02-04T02:30:52.197Z,48.83
2018-02-04T02:32:44.980Z,49.21
2018-02-04T02:33:44.893Z,49.02
2018-02-04T02:35:37.676Z,48.93
2018-02-04T02:36:37.591Z,49.02
2018-02-04T02:38:30.369Z,49.02
2018-02-04T02:39:30.286Z,49.11
2018-02-04T02:41:23.067Z,49.11
2018-02-04T02:42:22.983Z,48.83
2018-02-04T02:44:15.766Z,48.93
2018-02-04T02:45:15.678Z,49.21
2018-02-04T02:47:08.441Z,48.93
2018-02-04T02:48:08.377Z,49.02
2018-02-04T02:50:01.160Z,49.11
2018-02-04T02:51:01.076Z,48.54
2018-02-04T02:52:53.855Z,49.11
2018-02-04T02:53:53.773Z,48.93
2018-02-04T02:55:46.552Z,48.73
2018-02-04T02:56:46.465Z,49.11
2018-02-04T02:58:39.248Z,48.73
2018-02-04T02:59:39.162Z,48.83
2018-02-04T03:01:31.941Z,49.59
2018-02-04T03:02:31.857Z,49.30
2018-02-04T03:04:24.618Z,49.59
2018-02-04T03:05:24.553Z,49.49
2018-02-04T03:07:17.334Z,49.59
2018-02-04T03:08:17.251Z,49.40
2018-02-04T03:10:10.097Z,49.49
2018-02-04T03:11:09.955Z,49.40
2018-02-04T03:13:02.739Z,49.59
2018-02-04T03:14:02.652Z,49.59
2018-02-04T03:15:55.434Z,49.40
2018-02-04T03:16:55.348Z,49.49
2018-02-04T03:18:48.133Z,49.30
2018-02-04T03:19:48.049Z,49.49
2018-02-04T03:21:40.806Z,49.30
2018-02-04T03:22:40.742Z,49.69
2018-02-04T03:24:33.523Z,49.02
2018-02-04T03:25:33.439Z,49.59
2018-02-04T03:27:26.223Z,49.49
2018-02-04T03:28:26.138Z,49.40
2018-02-04T03:30:18.926Z,49.38
2018-02-04T03:31:18.830Z,49.38
2018-02-04T03:33:11.614Z,49.59
2018-02-04T03:34:11.528Z,49.57
2018-02-04T03:36:04.315Z,49.66
2018-02-04T03:37:04.223Z,49.49
2018-02-04T03:38:56.985Z,49.49
2018-02-04T03:39:56.945Z,49.66
2018-02-04T03:41:49.702Z,49.30
2018-02-04T03:42:49.618Z,49.47
2018-02-04T03:44:42.402Z,49.49
2018-02-04T03:45:42.314Z,49.40
2018-02-04T03:47:35.106Z,49.30
2018-02-04T03:48:35.018Z,49.21
2018-02-04T03:50:27.800Z,49.40
2018-02-04T03:51:27.716Z,49.40
2018-02-04T03:53:20.495Z,49.69
2018-02-04T03:54:20.409Z,49.57
2018-02-04T03:56:13.169Z,49.28
2018-02-04T03:57:13.105Z,49.85
2018-02-04T03:59:05.889Z,49.76
2018-02-04T04:00:05.802Z,49.38
2018-02-04T04:01:58.584Z,49.38
2018-02-04T04:02:58.499Z,49.40
2018-02-04T04:04:51.279Z,49.28
2018-02-04T04:05:51.195Z,49.66
2018-02-04T04:07:43.978Z,49.38
2018-02-04T04:08:43.890Z,49.88
2018-02-04T04:10:36.673Z,49.47
2018-02-04T04:11:36.586Z,49.57
2018-02-04T04:13:29.347Z,49.85
2018-02-04T04:14:29.284Z,49.59
2018-02-04T04:16:22.064Z,49.57
2018-02-04T04:17:21.981Z,49.76
2018-02-04T04:19:14.740Z,49.85
2018-02-04T04:20:14.675Z,49.38
2018-02-04T04:22:07.457Z,50.04
2018-02-04T04:23:07.372Z,50.24
2018-02-04T04:25:00.153Z,49.95
2018-02-04T04:26:00.070Z,50.14
2018-02-04T04:27:52.850Z,49.95
2018-02-04T04:28:52.766Z,49.66
2018-02-04T04:30:45.527Z,49.38
2018-02-04T04:31:45.463Z,49.57
2018-02-04T04:33:38.248Z,49.38
2018-02-04T04:34:38.165Z,49.76
2018-02-04T04:36:30.945Z,49.57
2018-02-04T04:37:30.862Z,49.76
2018-02-04T04:39:23.644Z,49.38
2018-02-04T04:40:23.558Z,49.76
2018-02-04T04:42:16.338Z,49.95
2018-02-04T04:43:16.253Z,49.95
2018-02-04T04:45:09.037Z,49.85
2018-02-04T04:46:08.952Z,49.38
2018-02-04T04:48:01.711Z,49.76
2018-02-04T04:49:01.647Z,49.47
2018-02-04T04:50:54.427Z,49.57
2018-02-04T04:51:54.342Z,49.57
2018-02-04T04:53:47.124Z,49.57
2018-02-04T04:54:47.037Z,49.57
2018-02-04T04:56:39.820Z,49.85
2018-02-04T04:57:39.734Z,49.76
2018-02-04T04:59:32.515Z,50.14
2018-02-04T05:00:32.430Z,50.14
2018-02-04T05:02:25.213Z,49.76
2018-02-04T05:03:25.128Z,50.14
2018-02-04T05:05:17.891Z,50.04
2018-02-04T05:06:17.824Z,50.24
2018-02-04T05:08:10.610Z,49.95
2018-02-04T05:09:10.526Z,49.95
2018-02-04T05:11:03.312Z,49.76
2018-02-04T05:12:03.228Z,50.14
2018-02-04T05:13:56.005Z,49.85
2018-02-04T05:14:55.919Z,49.85
2018-02-04T05:16:48.700Z,50.04
2018-02-04T05:17:48.614Z,50.14
2018-02-04T05:19:41.396Z,50.14
2018-02-04T05:20:41.312Z,50.04
2018-02-04T05:22:34.073Z,50.04
2018-02-04T05:23:34.007Z,50.14
2018-02-04T05:25:26.795Z,50.14
2018-02-04T05:26:26.708Z,50.04
2018-02-04T05:28:19.489Z,50.04
2018-02-04T05:29:19.402Z,49.95
2018-02-04T05:31:12.183Z,49.76
2018-02-04T05:32:12.099Z,49.95
2018-02-04T05:34:04.884Z,49.95
2018-02-04T05:35:04.795Z,49.66
2018-02-04T05:36:57.579Z,49.95
2018-02-04T05:37:57.492Z,49.95
2018-02-04T05:39:50.256Z,50.04
2018-02-04T05:40:50.191Z,49.95
2018-02-04T05:42:42.972Z,50.14
2018-02-04T05:43:42.891Z,50.14
2018-02-04T05:45:35.670Z,49.95
2018-02-04T05:46:35.587Z,49.95
2018-02-04T05:48:28.366Z,49.95
2018-02-04T05:49:28.280Z,50.04
2018-02-04T05:51:21.061Z,50.14
2018-02-04T05:52:20.976Z,50.14
2018-02-04T05:54:13.758Z,50.04
2018-02-04T05:55:13.673Z,49.85
2018-02-04T05:57:06.454Z,50.04
2018-02-04T05:58:06.368Z,49.85
2018-02-04T05:59:59.149Z,49.66
2018-02-04T06:00:59.063Z,49.85
2018-02-04T06:02:51.824Z,50.14
2018-02-04T06:03:51.760Z,49.76
2018-02-04T06:05:44.544Z,49.85
2018-02-04T06:06:44.459Z,50.14
2018-02-04T06:08:37.241Z,50.14
2018-02-04T06:09:37.155Z,49.85
2018-02-04T06:11:29.939Z,50.14
2018-02-04T06:12:29.852Z,49.85
2018-02-04T06:14:22.635Z,49.85
2018-02-04T06:15:22.551Z,50.04
2018-02-04T06:17:15.333Z,50.14
2018-02-04T06:18:15.248Z,50.14
2018-02-04T06:20:08.011Z,50.04
2018-02-04T06:21:07.942Z,50.04
2018-02-04T06:23:00.724Z,50.04
2018-02-04T06:24:00.639Z,50.24
2018-02-04T06:25:53.429Z,49.66
2018-02-04T06:26:53.334Z,50.33
2018-02-04T06:28:46.119Z,50.14
2018-02-04T06:29:46.033Z,50.33
2018-02-04T06:31:38.815Z,50.14
2018-02-04T06:32:38.728Z,50.14
2018-02-04T06:34:31.512Z,50.43
2018-02-04T06:35:31.427Z,50.52
2018-02-04T06:37:24.187Z,50.43
2018-02-04T06:38:24.122Z,50.52
2018-02-04T06:40:16.904Z,50.52
2018-02-04T06:41:16.817Z,50.71
2018-02-04T06:43:09.598Z,50.52
2018-02-04T06:44:09.511Z,50.52
2018-02-04T06:46:02.297Z,50.43
2018-02-04T06:47:02.210Z,50.43
2018-02-04T06:48:54.991Z,50.33
2018-02-04T06:49:54.905Z,50.14
2018-02-04T06:51:48.287Z,50.04
2018-02-04T06:52:48.003Z,49.95
2018-02-04T06:54:40.558Z,50.04
2018-02-04T06:55:40.493Z,50.14
2018-02-04T06:57:33.273Z,50.14
2018-02-04T06:58:33.187Z,50.04
2018-02-04T07:00:25.949Z,50.14
2018-02-04T07:01:25.885Z,50.14
2018-02-04T07:03:18.665Z,50.14
2018-02-04T07:04:18.579Z,50.14
2018-02-04T07:06:11.361Z,49.95
2018-02-04T07:07:11.276Z,50.43
2018-02-04T07:09:04.062Z,50.14
2018-02-04T07:10:03.976Z,50.14
2018-02-04T07:11:56.735Z,50.24
2018-02-04T07:12:56.670Z,50.24
2018-02-04T07:14:49.454Z,49.85
2018-02-04T07:15:49.368Z,49.95
2018-02-04T07:17:42.131Z,50.04
2018-02-04T07:18:42.066Z,50.04
2018-02-04T07:20:34.849Z,50.14
2018-02-04T07:21:34.796Z,50.14
2018-02-04T07:23:27.584Z,50.04
2018-02-04T07:24:27.454Z,50.14
2018-02-04T07:26:20.239Z,50.14
2018-02-04T07:27:20.154Z,49.95
2018-02-04T07:29:12.916Z,49.66
2018-02-04T07:30:12.850Z,49.76
2018-02-04T07:32:05.632Z,49.57
2018-02-04T07:33:05.547Z,49.85
2018-02-04T07:34:58.305Z,49.57
2018-02-04T07:35:58.240Z,49.57
2018-02-04T07:37:51.024Z,49.38
2018-02-04T07:38:50.938Z,49.57
2018-02-04T07:40:43.743Z,48.90
2018-02-04T07:41:43.634Z,49.02
2018-02-04T07:43:36.417Z,49.02
2018-02-04T07:44:36.331Z,48.73
2018-02-04T07:46:29.112Z,48.73
2018-02-04T07:47:29.028Z,48.54
2018-02-04T07:49:21.792Z,48.16
2018-02-04T07:50:21.726Z,48.35
2018-02-04T07:52:14.508Z,48.25
2018-02-04T07:53:14.419Z,48.07
2018-02-04T07:55:07.208Z,48.16
2018-02-04T07:56:07.116Z,48.25
2018-02-04T07:57:59.901Z,48.16
2018-02-04T07:58:59.816Z,47.97
2018-02-04T08:00:52.595Z,48.07
2018-02-04T08:01:52.513Z,47.97
2018-02-04T08:03:45.291Z,47.87
2018-02-04T08:04:45.206Z,47.39
2018-02-04T08:06:37.966Z,47.80
2018-02-04T08:07:37.903Z,47.87
2018-02-04T08:09:30.686Z,48.18
2018-02-04T08:10:30.601Z,47.99
2018-02-04T08:12:23.381Z,47.03
2018-02-04T08:13:23.297Z,47.23
2018-02-04T08:15:16.081Z,47.32
2018-02-04T08:16:15.995Z,47.13
2018-02-04T08:18:08.776Z,47.23
2018-02-04T08:19:08.694Z,46.94
2018-02-04T08:21:01.477Z,46.75
2018-02-04T08:22:01.390Z,47.13
2018-02-04T08:23:54.152Z,46.75
2018-02-04T08:24:54.090Z,46.75
2018-02-04T08:26:46.868Z,46.84
2018-02-04T08:27:46.783Z,46.56
2018-02-04T08:28:46.722Z,46.56
2018-02-04T08:29:46.712Z,46.66
2018-02-04T08:30:46.602Z,46.37
2018-02-04T08:31:46.541Z,46.17
2018-02-04T08:32:46.480Z,46.37
2018-02-04T08:33:46.421Z,46.37
2018-02-04T08:34:46.360Z,46.46
2018-02-04T08:35:46.299Z,46.37
2018-02-04T08:36:46.238Z,45.81
2018-02-04T08:37:46.179Z,45.62
2018-02-04T08:38:46.118Z,46.01
2018-02-04T08:39:46.056Z,45.81
2018-02-04T08:40:45.996Z,45.72
2018-02-04T08:41:45.938Z,45.53
2018-02-04T08:42:45.875Z,45.24
2018-02-04T08:43:45.815Z,45.34
2018-02-04T08:44:45.755Z,45.53
2018-02-04T08:45:45.695Z,45.72
2018-02-04T08:46:45.633Z,45.05
2018-02-04T08:47:45.576Z,45.15
2018-02-04T08:48:45.516Z,45.24
2018-02-04T08:49:45.453Z,44.57
2018-02-04T08:50:45.395Z,44.76
2018-02-04T08:51:45.338Z,44.50
2018-02-04T08:52:45.277Z,44.79
2018-02-04T08:53:45.217Z,44.40
2018-02-04T08:54:45.152Z,44.59
2018-02-04T08:55:45.092Z,44.59
2018-02-04T08:56:45.033Z,44.21
2018-02-04T08:57:44.972Z,44.21
2018-02-04T08:58:44.912Z,44.12
2018-02-04T08:59:44.851Z,44.21
2018-02-04T09:00:44.792Z,44.21
2018-02-04T09:01:44.731Z,44.12
2018-02-04T09:02:44.670Z,44.69
2018-02-04T09:03:44.610Z,44.59
2018-02-04T09:04:44.551Z,44.48
2018-02-04T09:05:44.492Z,44.57
2018-02-04T09:06:44.432Z,44.67
2018-02-04T09:07:44.372Z,44.86
2018-02-04T09:08:44.312Z,44.57
2018-02-04T09:09:44.251Z,44.95
2018-02-04T09:10:44.191Z,44.57
2018-02-04T09:11:44.130Z,45.34
2018-02-04T09:12:44.070Z,45.34
2018-02-04T09:13:44.011Z,45.15
2018-02-04T09:14:43.949Z,45.72
2018-02-04T09:15:43.890Z,45.05
2018-02-04T09:16:43.832Z,45.24
2018-02-04T09:17:43.771Z,45.34
2018-02-04T09:18:43.708Z,45.43
2018-02-04T09:19:43.649Z,45.43
2018-02-04T09:20:43.591Z,45.43
2018-02-04T09:21:43.528Z,45.34
2018-02-04T09:22:43.468Z,45.15
2018-02-04T09:23:43.407Z,45.43
2018-02-04T09:24:43.348Z,45.34
2018-02-04T09:25:43.287Z,45.34
2018-02-04T09:26:43.227Z,45.34
2018-02-04T09:27:43.166Z,45.43
2018-02-04T09:28:43.108Z,45.43
2018-02-04T09:29:43.045Z,45.15
2018-02-04T09:30:42.984Z,45.62
2018-02-04T09:31:42.925Z,45.24
2018-02-04T09:32:42.864Z,45.24
2018-02-04T09:33:42.804Z,44.67
2018-02-04T09:34:42.744Z,44.95
2018-02-04T09:35:42.685Z,44.57
2018-02-04T09:36:42.622Z,44.86
2018-02-04T09:37:42.562Z,44.95
2018-02-04T09:38:42.500Z,44.95
2018-02-04T09:39:42.441Z,44.67
2018-02-04T09:40:42.384Z,44.67
2018-02-04T09:41:42.322Z,44.86
2018-02-04T09:42:42.262Z,44.86
2018-02-04T09:43:42.200Z,44.67
2018-02-04T09:44:42.141Z,44.76
2018-02-04T09:45:42.081Z,44.67
2018-02-04T09:46:42.021Z,44.67
2018-02-04T09:47:41.961Z,45.43
2018-02-04T09:48:41.900Z,45.15
2018-02-04T09:49:41.841Z,45.05
2018-02-04T09:50:41.783Z,44.67
2018-02-04T09:51:41.718Z,45.15
2018-02-04T09:52:41.657Z,45.05
2018-02-04T09:53:41.599Z,44.67
2018-02-04T09:54:41.538Z,44.67
2018-02-04T09:55:41.478Z,44.86
2018-02-04T09:56:41.424Z,44.86
2018-02-04T09:57:41.357Z,44.76
2018-02-04T09:58:41.321Z,44.57
2018-02-04T09:59:41.238Z,44.95
2018-02-04T10:00:41.177Z,44.95
2018-02-04T10:01:41.118Z,44.76
2018-02-04T10:02:41.057Z,44.50
2018-02-04T10:03:40.995Z,44.67
2018-02-04T10:04:40.937Z,44.57
2018-02-04T10:05:40.876Z,44.76
2018-02-04T10:06:40.817Z,44.29
2018-02-04T10:07:40.755Z,44.57
2018-02-04T10:08:40.695Z,44.86
2018-02-04T10:09:40.636Z,44.95
2018-02-04T10:10:40.575Z,44.19
2018-02-04T10:11:40.516Z,44.67
2018-02-04T10:12:40.455Z,44.76
2018-02-04T10:13:40.394Z,44.69
2018-02-04T10:14:40.334Z,44.21
2018-02-04T10:15:40.274Z,44.67
2018-02-04T10:16:40.217Z,44.76
2018-02-04T10:17:40.157Z,44.67
2018-02-04T10:18:40.093Z,44.86
2018-02-04T10:19:40.038Z,44.95
2018-02-04T10:20:39.975Z,44.48
2018-02-04T10:21:39.915Z,44.48
2018-02-04T10:22:39.853Z,44.86
2018-02-04T10:23:39.793Z,44.95
2018-02-04T10:24:39.733Z,44.86
2018-02-04T10:25:39.674Z,44.86
2018-02-04T10:26:39.615Z,44.67
2018-02-04T10:27:39.553Z,44.86
2018-02-04T10:28:39.495Z,44.95
2018-02-04T10:29:39.434Z,45.15
2018-02-04T10:30:39.426Z,44.67
2018-02-04T10:31:39.314Z,44.57
2018-02-04T10:32:39.254Z,44.76
2018-02-04T10:33:39.194Z,44.76
2018-02-04T10:34:39.133Z,44.76
2018-02-04T10:35:39.074Z,44.86
2018-02-04T10:36:39.014Z,44.76
2018-02-04T10:37:38.955Z,44.95
2018-02-04T10:38:38.892Z,44.98
2018-02-04T10:39:38.833Z,44.50
2018-02-04T10:40:38.773Z,44.88
2018-02-04T10:41:38.713Z,44.57
2018-02-04T10:42:38.652Z,44.98
2018-02-04T10:43:38.594Z,44.79
2018-02-04T10:44:38.532Z,44.31
2018-02-04T10:45:38.473Z,44.40
2018-02-04T10:46:38.412Z,44.50
2018-02-04T10:47:38.354Z,44.69
2018-02-04T10:48:38.293Z,44.40
2018-02-04T10:49:38.237Z,44.59
2018-02-04T10:50:38.173Z,44.21
2018-02-04T10:51:38.112Z,44.12
2018-02-04T10:52:38.054Z,44.21
2018-02-04T10:53:37.993Z,44.12
2018-02-04T10:54:37.933Z,44.02
2018-02-04T10:55:37.892Z,43.83
2018-02-04T10:56:37.812Z,43.83
2018-02-04T10:57:37.754Z,43.63
2018-02-04T10:58:37.694Z,43.73
2018-02-04T10:59:37.633Z,43.54
2018-02-04T11:00:37.575Z,43.44
2018-02-04T11:01:37.513Z,43.35
2018-02-04T11:02:37.454Z,43.44
2018-02-04T11:03:37.393Z,43.44
2018-02-04T11:04:37.336Z,43.37
2018-02-04T11:05:37.273Z,43.54
2018-02-04T11:06:37.215Z,43.08
2018-02-04T11:07:37.154Z,42.99
2018-02-04T11:08:37.095Z,42.97
2018-02-04T11:09:37.035Z,42.99
2018-02-04T11:10:36.976Z,42.99
2018-02-04T11:11:36.933Z,43.08
2018-02-04T11:12:36.856Z,43.08
2018-02-04T11:13:36.798Z,42.99
2018-02-04T11:14:36.737Z,43.08
2018-02-04T11:15:36.678Z,42.99
2018-02-04T11:16:36.620Z,43.08
2018-02-04T11:17:36.562Z,43.18
2018-02-04T11:18:36.499Z,43.18
2018-02-04T11:19:36.443Z,43.35
2018-02-04T11:20:36.380Z,43.08
2018-02-04T11:21:36.321Z,43.47
2018-02-04T11:22:36.260Z,43.37
2018-02-04T11:23:36.199Z,43.44
2018-02-04T11:24:36.141Z,43.37
2018-02-04T11:25:36.084Z,43.18
2018-02-04T11:26:36.022Z,43.47
2018-02-04T11:27:35.962Z,43.47
2018-02-04T11:28:35.903Z,43.27
2018-02-04T11:29:35.844Z,43.35
2018-02-04T11:30:35.783Z,43.16
2018-02-04T11:31:35.723Z,42.99
2018-02-04T11:32:35.665Z,42.51
2018-02-04T11:33:35.604Z,42.51
2018-02-04T11:34:35.545Z,42.32
2018-02-04T11:35:35.485Z,42.22
2018-02-04T11:36:35.426Z,42.41
2018-02-04T11:37:35.367Z,42.51
2018-02-04T11:38:35.307Z,42.70
2018-02-04T11:39:35.246Z,42.60
2018-02-04T11:40:35.188Z,42.13
2018-02-04T11:41:35.129Z,42.32
2018-02-04T11:42:35.067Z,42.22
2018-02-04T11:43:35.009Z,42.32
2018-02-04T11:44:34.949Z,42.14
2018-02-04T11:45:34.891Z,41.96
2018-02-04T11:46:34.860Z,42.24
2018-02-04T11:47:34.773Z,42.34
2018-02-04T11:48:34.712Z,42.22
2018-02-04T11:49:34.652Z,42.34
2018-02-04T11:50:34.593Z,42.34
2018-02-04T11:51:34.533Z,42.14
2018-02-04T11:52:34.475Z,41.96
2018-02-04T11:53:34.417Z,42.14
2018-02-04T11:54:34.355Z,41.67
2018-02-04T11:55:34.298Z,41.86
2018-02-04T11:56:34.238Z,41.57
2018-02-04T11:57:34.180Z,40.52
2018-02-04T11:58:34.119Z,41.19
2018-02-04T11:59:34.061Z,41.19
2018-02-04T12:00:34.002Z,41.28
2018-02-04T12:01:33.942Z,41.19
2018-02-04T12:02:33.883Z,40.90
2018-02-04T12:03:33.823Z,41.28
2018-02-04T12:04:33.765Z,41.00
2018-02-04T12:05:33.704Z,41.00
2018-02-04T12:06:33.646Z,40.71
2018-02-04T12:07:33.586Z,41.09
2018-02-04T12:08:33.529Z,41.09
2018-02-04T12:09:33.468Z,41.19
2018-02-04T12:10:33.409Z,41.19
2018-02-04T12:11:33.352Z,41.19
2018-02-04T12:12:33.290Z,41.36
2018-02-04T12:13:33.231Z,41.57
2018-02-04T12:14:33.174Z,41.46
2018-02-04T12:15:33.115Z,41.55
2018-02-04T12:16:33.080Z,41.65
2018-02-04T12:17:32.996Z,41.74
2018-02-04T12:18:32.935Z,41.55
2018-02-04T12:19:32.876Z,41.65
2018-02-04T12:20:32.821Z,42.22
2018-02-04T12:21:32.759Z,42.03
2018-02-04T12:22:32.697Z,42.22
2018-02-04T12:23:32.642Z,42.13
2018-02-04T12:24:32.580Z,42.22
2018-02-04T12:25:32.519Z,42.13
2018-02-04T12:26:32.464Z,41.94
2018-02-04T12:27:32.402Z,42.13
2018-02-04T12:28:32.342Z,42.20
2018-02-04T12:29:32.284Z,42.32
2018-02-04T12:30:32.223Z,42.22
2018-02-04T12:31:32.168Z,42.30
2018-02-04T12:32:32.108Z,42.40
2018-02-04T12:33:32.044Z,42.13
2018-02-04T12:34:31.986Z,42.40
2018-02-04T12:35:31.925Z,42.11
2018-02-04T12:36:31.867Z,42.30
2018-02-04T12:37:31.807Z,42.30
2018-02-04T12:38:31.746Z,42.40
2018-02-04T12:39:31.686Z,42.40
2018-02-04T12:40:31.633Z,42.40
2018-02-04T12:41:31.568Z,42.49
2018-02-04T12:42:31.507Z,42.49
2018-02-04T12:43:31.448Z,42.68
2018-02-04T12:44:31.388Z,43.16
2018-02-04T12:45:31.329Z,43.44
2018-02-04T12:46:31.268Z,43.83
2018-02-04T12:47:31.210Z,43.83
2018-02-04T12:48:31.148Z,44.12
2018-02-04T12:49:31.089Z,44.59
2018-02-04T12:50:31.029Z,44.31
2018-02-04T12:51:30.970Z,44.79
2018-02-04T12:52:30.909Z,44.59
2018-02-04T12:53:30.849Z,45.26
2018-02-04T12:54:30.789Z,45.65
2018-02-04T12:55:30.731Z,45.45
2018-02-04T12:56:30.670Z,45.26
2018-02-04T12:57:30.610Z,45.55
2018-02-04T12:58:30.550Z,45.36
2018-02-04T12:59:30.490Z,45.84
2018-02-04T13:00:30.430Z,45.84
2018-02-04T13:01:30.372Z,46.03
2018-02-04T13:02:30.346Z,46.61
2018-02-04T13:03:30.250Z,46.61
2018-02-04T13:04:30.191Z,46.41
2018-02-04T13:05:30.131Z,46.41
2018-02-04T13:06:30.071Z,46.31
2018-02-04T13:07:30.010Z,46.51
2018-02-04T13:08:29.956Z,46.61
2018-02-04T13:09:29.891Z,46.70
2018-02-04T13:10:29.830Z,46.70
2018-02-04T13:11:29.771Z,46.98
2018-02-04T13:12:29.711Z,46.89
2018-02-04T13:13:29.652Z,46.98
2018-02-04T13:14:29.591Z,47.27
2018-02-04T13:15:29.533Z,47.27
2018-02-04T13:16:29.471Z,47.27
2018-02-04T13:17:29.411Z,47.37
2018-02-04T13:18:29.351Z,47.37
2018-02-04T13:19:29.292Z,47.66
2018-02-04T13:20:29.231Z,48.04
2018-02-04T13:21:29.173Z,47.37
2018-02-04T13:22:29.110Z,48.23
2018-02-04T13:23:29.052Z,47.66
2018-02-04T13:24:28.993Z,48.04
2018-02-04T13:25:28.933Z,47.47
2018-02-04T13:26:28.873Z,47.18
2018-02-04T13:27:28.812Z,47.18
2018-02-04T13:28:28.752Z,46.98
2018-02-04T13:29:28.692Z,46.70
2018-02-04T13:30:28.631Z,46.61
2018-02-04T13:31:28.573Z,46.31
2018-02-04T13:32:28.512Z,46.12
2018-02-04T13:33:28.451Z,46.31
2018-02-04T13:34:28.392Z,46.41
2018-02-04T13:35:28.331Z,46.61
2018-02-04T13:36:28.283Z,46.51
2018-02-04T13:37:28.212Z,46.51
2018-02-04T13:38:28.151Z,46.51
2018-02-04T13:39:28.092Z,46.51
2018-02-04T13:40:28.032Z,46.31
2018-02-04T13:41:27.973Z,45.94
2018-02-04T13:42:27.911Z,45.94
2018-02-04T13:43:27.851Z,46.41
2018-02-04T13:44:27.792Z,46.41
2018-02-04T13:45:27.733Z,46.61
2018-02-04T13:46:27.672Z,46.61
2018-02-04T13:47:27.611Z,46.51
2018-02-04T13:48:27.553Z,46.39
2018-02-04T13:49:27.491Z,46.58
2018-02-04T13:50:27.433Z,46.48
2018-02-04T13:51:27.372Z,46.39
2018-02-04T13:52:27.357Z,46.48
2018-02-04T13:53:27.252Z,46.39
2018-02-04T13:54:27.191Z,46.39
2018-02-04T13:55:27.131Z,46.39
2018-02-04T13:56:27.071Z,46.20
2018-02-04T13:57:27.015Z,46.30
2018-02-04T13:58:26.952Z,46.20
2018-02-04T13:59:26.890Z,46.39
2018-02-04T14:00:26.831Z,46.67
2018-02-04T14:01:26.773Z,46.58
2018-02-04T14:02:26.709Z,46.30
2018-02-04T14:03:26.649Z,46.39
2018-02-04T14:04:26.590Z,46.48
2018-02-04T14:05:26.533Z,46.67
2018-02-04T14:06:26.470Z,46.48
2018-02-04T14:07:26.409Z,46.39
2018-02-04T14:08:26.350Z,46.39
2018-02-04T14:09:26.289Z,46.58
2018-02-04T14:10:26.236Z,46.39
2018-02-04T14:11:26.168Z,46.39
2018-02-04T14:12:26.108Z,46.39
2018-02-04T14:13:26.047Z,46.39
2018-02-04T14:14:25.986Z,46.48
2018-02-04T14:15:25.926Z,46.67
2018-02-04T14:16:25.868Z,46.39
2018-02-04T14:17:25.807Z,46.56
2018-02-04T14:18:25.744Z,46.58
2018-02-04T14:19:25.684Z,46.67
2018-02-04T14:20:25.626Z,46.77
2018-02-04T14:21:25.566Z,46.67
2018-02-04T14:22:25.506Z,46.39
2018-02-04T14:23:25.443Z,46.30
2018-02-04T14:24:25.383Z,46.30
2018-02-04T14:25:25.323Z,46.48
2018-02-04T14:26:25.263Z,46.20
2018-02-04T14:27:25.202Z,46.20
2018-02-04T14:28:25.142Z,46.30
2018-02-04T14:29:25.083Z,46.20
2018-02-04T14:30:25.023Z,46.30
2018-02-04T14:31:24.962Z,46.39
2018-02-04T14:32:24.901Z,46.27
2018-02-04T14:33:24.841Z,46.37
2018-02-04T14:34:24.780Z,46.27
2018-02-04T14:35:24.721Z,46.27
2018-02-04T14:36:24.659Z,46.20
2018-02-04T14:37:24.599Z,46.20
2018-02-04T14:38:24.538Z,46.17
2018-02-04T14:39:24.479Z,46.20
2018-02-04T14:40:24.417Z,46.27
2018-02-04T14:41:24.357Z,46.27
2018-02-04T14:42:24.297Z,46.17
2018-02-04T14:43:24.236Z,46.17
2018-02-04T14:44:24.175Z,46.10
2018-02-04T14:45:24.118Z,46.46
2018-02-04T14:46:24.055Z,46.27
2018-02-04T14:47:23.993Z,46.27
2018-02-04T14:48:23.939Z,46.37
2018-02-04T14:49:23.873Z,46.27
2018-02-04T14:50:23.814Z,46.46
2018-02-04T14:51:23.751Z,46.48
2018-02-04T14:52:23.695Z,46.56
2018-02-04T14:53:23.632Z,46.58
2018-02-04T14:54:23.570Z,46.46
2018-02-04T14:55:23.510Z,46.58
2018-02-04T14:56:23.450Z,45.98
2018-02-04T14:57:23.391Z,46.37
2018-02-04T14:58:23.329Z,46.46
2018-02-04T14:59:23.268Z,46.37
2018-02-04T15:00:23.207Z,46.37
2018-02-04T15:01:23.149Z,46.37
2018-02-04T15:02:23.087Z,46.37
2018-02-04T15:03:23.026Z,46.37
2018-02-04T15:04:22.966Z,46.27
2018-02-04T15:05:22.905Z,46.46
2018-02-04T15:06:22.844Z,46.37
2018-02-04T15:07:22.785Z,46.37
2018-02-04T15:08:22.724Z,46.37
2018-02-04T15:09:22.664Z,46.27
2018-02-04T15:10:22.602Z,46.37
2018-02-04T15:11:22.543Z,46.37
2018-02-04T15:12:22.483Z,46.17
2018-02-04T15:13:22.421Z,46.17
2018-02-04T15:14:22.359Z,46.46
2018-02-04T15:15:22.299Z,46.37
2018-02-04T15:16:22.241Z,46.27
2018-02-04T15:17:22.179Z,46.46
2018-02-04T15:18:22.118Z,46.17
2018-02-04T15:19:22.058Z,46.17
2018-02-04T15:20:21.998Z,46.37
2018-02-04T15:21:21.937Z,46.17
2018-02-04T15:22:21.876Z,46.17
2018-02-04T15:23:21.815Z,46.37
2018-02-04T15:24:21.754Z,46.37
2018-02-04T15:25:21.694Z,46.17
2018-02-04T15:26:21.634Z,46.17